Time;durP1;ratioP1;P1;durP2;ratioP2;P2;SDS_P1;SDS_P2;PMS_P1;PMS_P2;Temp;Humidity;BMP_temperature;BMP_pressure;BME280_temperature;BME280_humidity;BME280_pressure;Samples;Min_cycle;Max_cycle;Signal;HPM_P1;HPM_P2
2022/08/12 00:44:54;;;;;;;4.43;3.07;;;;;;;;;;5086669;28;20031;-66
2022/08/12 00:47:20;;;;;;;4.10;3.05;;;;;;;;;;5089069;28;20273;-66
2022/08/12 00:49:48;;;;;;;3.53;2.90;;;;;;;;;;5088944;28;20525;-66
2022/08/12 00:52:14;;;;;;;5.82;3.15;;;;;;;;;;5088741;28;20089;-66
2022/08/12 00:54:41;;;;;;;9.05;3.40;;;;;;;;;;5088355;28;20028;-66
2022/08/12 00:57:16;;;;;;;6.63;3.50;;;;;;;;;;5087861;28;20453;-66
2022/08/12 00:59:51;;;;;;;7.45;3.58;;;;;;;;;;5087509;28;20753;-66
2022/08/12 01:02:27;;;;;;;6.35;3.90;;;;;;;;;;5086446;28;20058;-66
2022/08/12 01:13:09;;;;;;;10.85;3.63;;;;;;;;;;5086487;28;20026;-66
2022/08/12 01:15:34;;;;;;;7.15;3.10;;;;;;;;;;5092440;28;20601;-66
2022/08/12 01:18:00;;;;;;;11.82;3.72;;;;;;;;;;5092613;28;20134;-66
2022/08/12 01:20:34;;;;;;;6.25;3.42;;;;;;;;;;5091240;28;20055;-66
2022/08/12 01:23:19;;;;;;;5.15;3.20;;;;;;;;;;5090856;28;20365;-67
2022/08/12 01:25:46;;;;;;;8.52;3.40;;;;;;;;;;5090056;28;20031;-67
2022/08/12 01:28:12;;;;;;;11.77;3.47;;;;;;;;;;5092826;28;20024;-66
2022/08/12 01:30:39;;;;;;;8.57;3.22;;;;;;;;;;5091172;28;20027;-66
2022/08/12 01:33:05;;;;;;;5.38;3.53;;;;;;;;;;5092565;28;20059;-66
2022/08/12 01:35:31;;;;;;;7.45;3.25;;;;;;;;;;5091960;28;20044;-67
2022/08/12 01:37:58;;;;;;;4.35;3.40;;;;;;;;;;5092442;28;20028;-66
2022/08/12 01:40:26;;;;;;;5.30;3.42;;;;;;;;;;5090785;28;20031;-67
2022/08/12 01:42:53;;;;;;;11.90;4.15;;;;;;;;;;5092099;28;20024;-66
2022/08/12 01:45:23;;;;;;;5.30;3.85;;;;;;;;;;5091927;28;20040;-66
2022/08/12 01:48:07;;;;;;;6.73;3.43;;;;;;;;;;5092142;28;20024;-66
2022/08/12 01:50:36;;;;;;;8.07;3.22;;;;;;;;;;5089446;28;20027;-67
2022/08/12 01:53:11;;;;;;;8.32;3.75;;;;;;;;;;5092061;28;20020;-66
2022/08/12 01:55:38;;;;;;;6.10;3.88;;;;;;;;;;5092081;28;20081;-66
2022/08/12 01:58:10;;;;;;;8.43;3.60;;;;;;;;;;5091927;28;20463;-67
2022/08/12 02:00:50;;;;;;;7.13;3.33;;;;;;;;;;5090025;28;20625;-66
2022/08/12 02:03:25;;;;;;;9.00;3.78;;;;;;;;;;5092510;28;20028;-67
2022/08/12 02:11:28;;;;;;;10.05;4.05;;;;;;;;;;5087731;28;20117;-66
2022/08/12 02:14:12;;;;;;;6.57;3.67;;;;;;;;;;5091186;28;20484;-66
2022/08/12 02:16:40;;;;;;;4.88;3.70;;;;;;;;;;5091461;28;20024;-66
2022/08/12 02:19:19;;;;;;;7.82;3.63;;;;;;;;;;5087977;28;20024;-66
2022/08/12 02:21:57;;;;;;;13.65;3.75;;;;;;;;;;5090804;28;20027;-66
2022/08/12 02:24:22;;;;;;;7.63;3.72;;;;;;;;;;5091369;28;20024;-66
2022/08/12 02:26:48;;;;;;;6.43;3.63;;;;;;;;;;5090877;28;20035;-67
2022/08/12 02:29:14;;;;;;;9.60;3.47;;;;;;;;;;5088650;28;20016;-66
2022/08/12 02:31:42;;;;;;;12.27;4.22;;;;;;;;;;5090896;28;20420;-67
2022/08/12 02:34:07;;;;;;;6.03;3.53;;;;;;;;;;5089718;28;20035;-66
2022/08/12 02:36:33;;;;;;;6.18;3.63;;;;;;;;;;5091295;28;20623;-67
2022/08/12 02:38:58;;;;;;;7.33;4.30;;;;;;;;;;5090451;28;20468;-66
2022/08/12 02:41:24;;;;;;;5.53;4.05;;;;;;;;;;5091743;28;20758;-66
2022/08/12 02:43:51;;;;;;;7.25;3.97;;;;;;;;;;5090255;28;20500;-66
2022/08/12 02:46:19;;;;;;;8.80;3.67;;;;;;;;;;5090796;28;20472;-66
2022/08/12 02:48:48;;;;;;;9.40;4.30;;;;;;;;;;5090159;28;20085;-66
2022/08/12 02:51:16;;;;;;;7.63;4.47;;;;;;;;;;5089566;28;20038;-66
2022/08/12 02:53:43;;;;;;;5.82;4.30;;;;;;;;;;5091386;28;20024;-66
2022/08/12 02:56:09;;;;;;;5.43;3.88;;;;;;;;;;5089910;28;20426;-66
2022/08/12 02:58:34;;;;;;;5.88;4.07;;;;;;;;;;5090060;28;20016;-67
2022/08/12 03:01:01;;;;;;;10.23;4.07;;;;;;;;;;5089985;28;20036;-66
2022/08/12 03:03:31;;;;;;;8.68;3.53;;;;;;;;;;5091369;28;20021;-66
2022/08/12 03:06:00;;;;;;;12.45;4.95;;;;;;;;;;5089929;28;20038;-66
2022/08/12 03:08:30;;;;;;;5.45;4.05;;;;;;;;;;5089863;28;20032;-67
2022/08/12 03:10:58;;;;;;;5.50;3.67;;;;;;;;;;5089810;28;20054;-66
2022/08/12 03:13:25;;;;;;;6.05;4.50;;;;;;;;;;5090100;28;20412;-66
2022/08/12 03:15:52;;;;;;;6.90;4.65;;;;;;;;;;5089954;28;20028;-66
2022/08/12 03:18:23;;;;;;;11.30;4.25;;;;;;;;;;5089952;28;20024;-66
2022/08/12 03:20:48;;;;;;;8.70;4.25;;;;;;;;;;5090066;28;20024;-66
2022/08/12 03:23:14;;;;;;;7.83;3.60;;;;;;;;;;5090876;28;20028;-66
2022/08/12 03:25:40;;;;;;;8.40;4.53;;;;;;;;;;5089012;28;20754;-66
2022/08/12 03:28:07;;;;;;;7.35;4.15;;;;;;;;;;5088894;28;20028;-66
2022/08/12 03:30:33;;;;;;;8.60;4.50;;;;;;;;;;5087942;28;20503;-66
2022/08/12 03:33:01;;;;;;;10.25;4.40;;;;;;;;;;5091272;28;20024;-66
2022/08/12 03:35:27;;;;;;;6.47;4.13;;;;;;;;;;5089552;28;20028;-67
2022/08/12 03:37:55;;;;;;;11.50;4.65;;;;;;;;;;5084128;28;20588;-66
2022/08/12 04:02:15;;;;;;;9.73;4.90;;;;;;;;;;5089964;28;20055;-66
2022/08/12 04:04:43;;;;;;;8.43;4.85;;;;;;;;;;5088509;28;20488;-66
2022/08/12 04:07:09;;;;;;;6.50;4.35;;;;;;;;;;5089251;28;20024;-66
2022/08/12 04:09:39;;;;;;;8.13;4.68;;;;;;;;;;5087517;28;20031;-66
2022/08/12 04:14:48;;;;;;;6.82;4.82;;;;;;;;;;5088749;28;20489;-67
2022/08/12 04:17:14;;;;;;;12.23;4.85;;;;;;;;;;5089776;28;20151;-66
2022/08/12 04:19:41;;;;;;;10.20;4.60;;;;;;;;;;5088704;28;20065;-66
2022/08/12 04:22:06;;;;;;;8.02;5.28;;;;;;;;;;5088409;28;20502;-66
2022/08/12 04:24:34;;;;;;;5.80;4.37;;;;;;;;;;5086941;28;20036;-66
2022/08/12 04:26:59;;;;;;;7.90;4.50;;;;;;;;;;5087623;28;20359;-66
2022/08/12 04:29:25;;;;;;;7.22;5.20;;;;;;;;;;5089143;28;20062;-66
2022/08/12 04:31:51;;;;;;;8.00;4.43;;;;;;;;;;5089072;28;20023;-66
2022/08/12 04:34:17;;;;;;;11.32;4.25;;;;;;;;;;5088100;28;20038;-66
2022/08/12 04:36:43;;;;;;;6.40;4.35;;;;;;;;;;5086906;28;20381;-67
2022/08/12 04:39:09;;;;;;;11.40;4.05;;;;;;;;;;5085761;28;20062;-67
2022/08/12 04:41:36;;;;;;;9.32;4.32;;;;;;;;;;5086786;28;20028;-66
2022/08/12 04:44:01;;;;;;;7.93;4.22;;;;;;;;;;5090351;28;20020;-66
2022/08/12 04:46:26;;;;;;;9.50;4.53;;;;;;;;;;5087899;28;20031;-66
2022/08/12 04:48:52;;;;;;;14.40;4.78;;;;;;;;;;5090242;28;20077;-65
2022/08/12 04:51:18;;;;;;;8.18;4.88;;;;;;;;;;5088960;28;20028;-66
2022/08/12 04:53:45;;;;;;;15.57;4.90;;;;;;;;;;5089972;28;20084;-66
2022/08/12 04:56:10;;;;;;;11.20;4.45;;;;;;;;;;5091827;28;20086;-66
2022/08/12 04:58:36;;;;;;;8.82;4.82;;;;;;;;;;5093474;28;20492;-67
2022/08/12 05:01:01;;;;;;;14.85;5.55;;;;;;;;;;5089706;28;20476;-67
2022/08/12 05:03:27;;;;;;;15.60;5.60;;;;;;;;;;5094232;28;20016;-66
2022/08/12 05:05:55;;;;;;;20.70;5.80;;;;;;;;;;5091957;28;20030;-66
2022/08/12 05:08:21;;;;;;;13.38;5.20;;;;;;;;;;5090785;28;20028;-65
2022/08/12 05:10:46;;;;;;;13.13;5.40;;;;;;;;;;5091688;28;20027;-66
2022/08/12 05:13:14;;;;;;;17.80;4.50;;;;;;;;;;5093100;28;20035;-66
2022/08/12 05:15:40;;;;;;;18.92;4.65;;;;;;;;;;5092090;28;20737;-66
2022/08/12 05:18:05;;;;;;;16.65;5.00;;;;;;;;;;5091573;28;20027;-65
2022/08/12 05:20:30;;;;;;;9.00;4.67;;;;;;;;;;5092752;28;20028;-66
2022/08/12 05:23:08;;;;;;;14.07;4.75;;;;;;;;;;5092028;28;20266;-66
2022/08/12 05:25:34;;;;;;;8.20;4.63;;;;;;;;;;5090589;28;20020;-66
2022/08/12 05:27:59;;;;;;;71.75;12.20;;;;;;;;;;5091330;28;20035;-65
2022/08/12 05:30:29;;;;;;;27.40;6.77;;;;;;;;;;5092483;28;20039;-67
2022/08/12 05:32:55;;;;;;;16.48;5.43;;;;;;;;;;5091336;28;20270;-66
2022/08/12 05:35:21;;;;;;;16.30;5.00;;;;;;;;;;5086838;28;20058;-66
2022/08/12 05:37:46;;;;;;;13.73;4.32;;;;;;;;;;5109842;22;20114;-66
2022/08/12 05:40:11;;;;;;;11.33;5.60;;;;;;;;;;5089769;28;20483;-66
2022/08/12 05:42:37;;;;;;;11.23;5.00;;;;;;;;;;5092955;28;20346;-66
2022/08/12 05:45:02;;;;;;;9.88;4.70;;;;;;;;;;5092279;28;20276;-66
2022/08/12 05:47:27;;;;;;;9.27;4.00;;;;;;;;;;5085798;28;20380;-66
2022/08/12 05:49:53;;;;;;;13.90;4.40;;;;;;;;;;5067875;28;20472;-66
2022/08/12 05:52:18;;;;;;;12.88;4.03;;;;;;;;;;5074248;28;20023;-66
2022/08/12 05:54:43;;;;;;;13.13;3.80;;;;;;;;;;5062345;28;20021;-66
2022/08/12 05:57:10;;;;;;;6.35;3.28;;;;;;;;;;5064249;28;20263;-66
2022/08/12 05:59:37;;;;;;;7.07;3.05;;;;;;;;;;5074442;28;20021;-66
2022/08/12 06:02:06;;;;;;;7.85;3.30;;;;;;;;;;5062446;28;20025;-66
2022/08/12 06:04:32;;;;;;;10.30;2.83;;;;;;;;;;5066612;28;20054;-66
2022/08/12 06:06:57;;;;;;;5.93;2.97;;;;;;;;;;5070970;28;20306;-66
2022/08/12 06:09:24;;;;;;;6.30;2.58;;;;;;;;;;5064101;28;20024;-66
2022/08/12 06:11:50;;;;;;;11.63;2.83;;;;;;;;;;5067627;28;20024;-66
2022/08/12 06:14:15;;;;;;;8.15;2.92;;;;;;;;;;5057257;28;20013;-66
2022/08/12 06:16:42;;;;;;;6.30;2.30;;;;;;;;;;5065371;28;20029;-66
2022/08/12 06:19:09;;;;;;;9.05;2.90;;;;;;;;;;5070455;28;20043;-66
2022/08/12 06:21:36;;;;;;;7.28;2.50;;;;;;;;;;5078971;28;20025;-66
2022/08/12 06:24:01;;;;;;;9.00;3.03;;;;;;;;;;5076473;28;20044;-66
2022/08/12 06:26:27;;;;;;;4.85;2.78;;;;;;;;;;5069039;28;20071;-66
2022/08/12 06:28:53;;;;;;;4.53;2.50;;;;;;;;;;5069126;28;20016;-66
2022/08/12 06:31:18;;;;;;;7.07;2.42;;;;;;;;;;5067928;28;20020;-65
2022/08/12 06:33:45;;;;;;;3.88;2.47;;;;;;;;;;5068266;28;20469;-65
2022/08/12 06:36:12;;;;;;;11.18;2.53;;;;;;;;;;5067472;28;20025;-65
2022/08/12 06:38:38;;;;;;;3.90;2.80;;;;;;;;;;5072795;28;20039;-65
2022/08/12 06:43:51;;;;;;;11.93;2.45;;;;;;;;;;5077091;28;20112;-65
2022/08/12 06:46:16;;;;;;;10.93;2.90;;;;;;;;;;5074041;28;20107;-65
2022/08/12 06:48:42;;;;;;;10.23;3.33;;;;;;;;;;5067258;28;20446;-65
2022/08/12 06:51:07;;;;;;;13.30;2.30;;;;;;;;;;5069220;28;20516;-65
2022/08/12 06:53:33;;;;;;;9.13;2.67;;;;;;;;;;5062656;28;20017;-65
2022/08/12 06:55:59;;;;;;;10.70;2.22;;;;;;;;;;5054316;28;20048;-65
2022/08/12 06:58:25;;;;;;;10.27;2.47;;;;;;;;;;5061920;28;20025;-65
2022/08/12 07:00:50;;;;;;;6.57;2.58;;;;;;;;;;5071352;28;20105;-65
2022/08/12 07:03:28;;;;;;;7.95;2.83;;;;;;;;;;5070311;28;20021;-65
2022/08/12 07:05:55;;;;;;;3.28;1.98;;;;;;;;;;5071471;28;20039;-65
2022/08/12 07:08:20;;;;;;;5.75;3.13;;;;;;;;;;5070926;28;20082;-65
2022/08/12 07:10:49;;;;;;;6.95;2.13;;;;;;;;;;5070985;28;20020;-65
2022/08/12 07:13:15;;;;;;;7.20;2.07;;;;;;;;;;5067691;28;20465;-65
2022/08/12 07:15:42;;;;;;;8.38;2.03;;;;;;;;;;5068764;28;20028;-65
2022/08/12 07:18:19;;;;;;;3.45;2.17;;;;;;;;;;5068958;28;20017;-65
2022/08/12 07:20:48;;;;;;;2.80;2.20;;;;;;;;;;5072223;28;20017;-66
2022/08/12 07:23:15;;;;;;;9.68;2.55;;;;;;;;;;5070211;28;20025;-66
2022/08/12 07:25:41;;;;;;;10.98;2.97;;;;;;;;;;5072088;28;20039;-66
2022/08/12 07:28:22;;;;;;;8.77;2.50;;;;;;;;;;5072267;28;20021;-66
2022/08/12 07:30:48;;;;;;;9.23;1.98;;;;;;;;;;5059542;28;20017;-66
2022/08/12 07:33:15;;;;;;;6.93;2.10;;;;;;;;;;5073709;28;20070;-66
2022/08/12 07:35:46;;;;;;;3.75;2.17;;;;;;;;;;5061137;28;20025;-66
2022/08/12 07:38:23;;;;;;;7.25;2.00;;;;;;;;;;5069315;28;20020;-66
2022/08/12 07:40:49;;;;;;;4.05;1.95;;;;;;;;;;5065654;28;20029;-66
2022/08/12 07:43:14;;;;;;;6.28;2.20;;;;;;;;;;5068655;28;20020;-66
2022/08/12 07:45:39;;;;;;;3.10;1.70;;;;;;;;;;5063162;28;20386;-66
2022/08/12 07:48:04;;;;;;;4.63;2.13;;;;;;;;;;5065432;28;20048;-66
2022/08/12 07:50:29;;;;;;;3.92;1.70;;;;;;;;;;5069534;28;20016;-66
2022/08/12 07:52:55;;;;;;;3.53;1.60;;;;;;;;;;5073508;28;20020;-66
2022/08/12 07:55:20;;;;;;;6.20;1.70;;;;;;;;;;5068648;28;20060;-66
2022/08/12 07:57:56;;;;;;;3.37;2.03;;;;;;;;;;5072231;28;20020;-66
2022/08/12 08:00:22;;;;;;;13.90;1.90;;;;;;;;;;5063349;28;20715;-66
2022/08/12 08:02:48;;;;;;;8.43;1.95;;;;;;;;;;5075278;28;20118;-67
2022/08/12 08:05:15;;;;;;;3.80;1.88;;;;;;;;;;5057246;28;20062;-67
2022/08/12 08:07:41;;;;;;;3.78;2.05;;;;;;;;;;5068553;28;20384;-67
2022/08/12 08:10:09;;;;;;;5.40;1.90;;;;;;;;;;5066133;28;20025;-68
2022/08/12 08:12:53;;;;;;;5.23;2.20;;;;;;;;;;5065215;28;20024;-67
2022/08/12 08:15:20;;;;;;;12.05;1.80;;;;;;;;;;5072302;28;20024;-67
2022/08/12 08:18:11;;;;;;;3.85;1.90;;;;;;;;;;5073666;28;20099;-67
2022/08/12 08:20:39;;;;;;;6.13;2.03;;;;;;;;;;5066316;28;20040;-68
2022/08/12 08:23:07;;;;;;;6.35;2.20;;;;;;;;;;5068011;28;20028;-68
2022/08/12 08:25:34;;;;;;;8.13;1.83;;;;;;;;;;5067683;28;20500;-67
2022/08/12 08:28:04;;;;;;;7.82;1.73;;;;;;;;;;5069442;28;20043;-66
2022/08/12 08:30:30;;;;;;;9.05;1.83;;;;;;;;;;5074518;28;20631;-67
2022/08/12 08:32:55;;;;;;;2.45;1.65;;;;;;;;;;5067852;28;20035;-67
2022/08/12 08:35:21;;;;;;;3.40;1.50;;;;;;;;;;5065245;28;20449;-67
2022/08/12 08:37:47;;;;;;;2.25;1.40;;;;;;;;;;5066152;28;20024;-67
2022/08/12 08:42:56;;;;;;;5.68;1.80;;;;;;;;;;5076070;28;20039;-66
2022/08/12 08:45:21;;;;;;;2.43;1.47;;;;;;;;;;5070190;28;20552;-67
2022/08/12 08:47:47;;;;;;;6.40;2.03;;;;;;;;;;5078580;28;20788;-66
2022/08/12 08:50:16;;;;;;;2.15;1.50;;;;;;;;;;5065361;28;20025;-66
2022/08/12 08:52:42;;;;;;;7.18;2.03;;;;;;;;;;5068700;28;20426;-67
2022/08/12 08:55:08;;;;;;;4.85;1.70;;;;;;;;;;5068355;28;20076;-67
2022/08/12 08:57:33;;;;;;;2.92;1.90;;;;;;;;;;5064876;28;20052;-67
2022/08/12 08:59:59;;;;;;;2.57;1.67;;;;;;;;;;5071104;28;20075;-66
2022/08/12 09:02:24;;;;;;;6.93;1.80;;;;;;;;;;5067293;28;20024;-67
2022/08/12 09:04:49;;;;;;;5.00;1.95;;;;;;;;;;5070639;28;20545;-66
2022/08/12 09:07:16;;;;;;;2.93;1.60;;;;;;;;;;5072897;28;20034;-67
2022/08/12 09:09:42;;;;;;;5.10;2.05;;;;;;;;;;5079298;28;20098;-66
2022/08/12 09:14:51;;;;;;;4.60;1.52;;;;;;;;;;5065000;28;20370;-66
2022/08/12 09:17:17;;;;;;;5.65;1.33;;;;;;;;;;5066387;28;20485;-67
2022/08/12 09:19:42;;;;;;;4.93;1.60;;;;;;;;;;5068484;28;20099;-66
2022/08/12 09:22:08;;;;;;;2.70;1.67;;;;;;;;;;5068191;28;20104;-66
2022/08/12 09:24:34;;;;;;;3.30;1.65;;;;;;;;;;5070844;28;20021;-67
2022/08/12 09:27:00;;;;;;;7.05;2.20;;;;;;;;;;5063611;28;20021;-67
2022/08/12 09:29:25;;;;;;;5.32;1.48;;;;;;;;;;5066089;28;20024;-67
2022/08/12 09:31:53;;;;;;;4.13;1.47;;;;;;;;;;5068950;28;20027;-67
2022/08/12 09:34:18;;;;;;;3.28;1.80;;;;;;;;;;5069473;28;20337;-67
2022/08/12 09:36:44;;;;;;;19.47;4.03;;;;;;;;;;5075424;28;20499;-67
2022/08/12 09:39:09;;;;;;;6.25;1.50;;;;;;;;;;5077325;28;20364;-67
2022/08/12 09:41:42;;;;;;;3.70;1.65;;;;;;;;;;5073583;28;20019;-67
2022/08/12 09:46:51;;;;;;;3.58;1.50;;;;;;;;;;5072715;28;20032;-67
2022/08/12 09:49:16;;;;;;;6.43;1.58;;;;;;;;;;5072529;28;20024;-66
2022/08/12 09:51:42;;;;;;;10.30;1.35;;;;;;;;;;5073368;28;20029;-67
2022/08/12 09:54:10;;;;;;;4.55;1.40;;;;;;;;;;5070559;28;20013;-67
2022/08/12 09:56:36;;;;;;;8.38;1.90;;;;;;;;;;5072804;28;20443;-67
2022/08/12 09:59:01;;;;;;;4.43;1.70;;;;;;;;;;5075563;28;20029;-66
2022/08/12 10:01:27;;;;;;;3.38;1.20;;;;;;;;;;5072108;28;20561;-67
2022/08/12 10:03:52;;;;;;;4.63;1.20;;;;;;;;;;5071825;28;20020;-67
2022/08/12 10:06:17;;;;;;;6.72;1.90;;;;;;;;;;5074719;28;20024;-67
2022/08/12 10:08:43;;;;;;;4.60;1.23;;;;;;;;;;5065560;28;20024;-67
2022/08/12 10:13:54;;;;;;;10.20;1.73;;;;;;;;;;5067522;28;20024;-67
2022/08/12 10:16:20;;;;;;;5.90;1.80;;;;;;;;;;5068771;28;20123;-68
2022/08/12 10:18:46;;;;;;;4.47;1.70;;;;;;;;;;5067348;28;20012;-67
2022/08/12 10:21:14;;;;;;;3.83;1.00;;;;;;;;;;5067866;28;20524;-67
2022/08/12 10:23:40;;;;;;;6.65;1.63;;;;;;;;;;5071642;28;20465;-66
2022/08/12 10:31:34;;;;;;;6.20;1.40;;;;;;;;;;5059772;28;20078;-67
2022/08/12 10:33:59;;;;;;;2.65;1.85;;;;;;;;;;5062382;28;20029;-65
2022/08/12 10:36:24;;;;;;;5.73;2.30;;;;;;;;;;5058747;28;20052;-65
2022/08/12 10:38:50;;;;;;;6.75;1.67;;;;;;;;;;5067690;28;20281;-65
2022/08/12 10:44:03;;;;;;;2.40;1.70;;;;;;;;;;5068331;28;20032;-65
2022/08/12 10:46:29;;;;;;;9.00;1.80;;;;;;;;;;5075468;28;21308;-66
2022/08/12 10:48:54;;;;;;;8.70;1.63;;;;;;;;;;5068090;28;20102;-67
2022/08/12 10:51:19;;;;;;;2.07;1.17;;;;;;;;;;5057577;28;20047;-66
2022/08/12 10:53:45;;;;;;;2.07;1.10;;;;;;;;;;5071012;28;20063;-67
2022/08/12 10:56:11;;;;;;;8.02;1.77;;;;;;;;;;5067800;28;20020;-67
2022/08/12 10:58:39;;;;;;;6.10;1.60;;;;;;;;;;5062489;28;20043;-67
2022/08/12 11:01:09;;;;;;;3.38;1.52;;;;;;;;;;5072898;28;20017;-67
2022/08/12 11:03:37;;;;;;;10.02;1.80;;;;;;;;;;5068157;28;20021;-67
2022/08/12 11:06:03;;;;;;;2.20;1.67;;;;;;;;;;5067262;28;20024;-67
2022/08/12 11:08:29;;;;;;;3.05;1.30;;;;;;;;;;5073096;28;20020;-67
2022/08/12 11:10:54;;;;;;;9.03;1.60;;;;;;;;;;5055182;28;20032;-67
2022/08/12 11:13:19;;;;;;;4.45;1.75;;;;;;;;;;5071296;28;20278;-67
2022/08/12 11:15:44;;;;;;;1.70;1.00;;;;;;;;;;5070362;28;20062;-67
2022/08/12 11:18:10;;;;;;;2.78;1.23;;;;;;;;;;5070163;28;20290;-67
2022/08/12 11:20:35;;;;;;;4.63;1.70;;;;;;;;;;5072761;28;20032;-66
2022/08/12 11:23:01;;;;;;;2.20;1.50;;;;;;;;;;5070669;28;20040;-66
2022/08/12 11:25:26;;;;;;;2.92;1.35;;;;;;;;;;5068518;28;20762;-67
2022/08/12 11:27:51;;;;;;;3.93;1.70;;;;;;;;;;5072365;28;20046;-66
2022/08/12 11:30:16;;;;;;;6.40;1.70;;;;;;;;;;5078046;28;20052;-66
2022/08/12 11:32:42;;;;;;;5.47;1.73;;;;;;;;;;5070751;28;20384;-66
2022/08/12 11:35:08;;;;;;;4.80;1.77;;;;;;;;;;5068270;28;20096;-66
2022/08/12 11:37:34;;;;;;;6.00;1.67;;;;;;;;;;5073843;28;20024;-67
2022/08/12 11:39:59;;;;;;;5.30;1.60;;;;;;;;;;5067957;28;20028;-67
2022/08/12 11:42:25;;;;;;;3.73;1.50;;;;;;;;;;5070428;28;20024;-67
2022/08/12 11:44:50;;;;;;;2.08;1.40;;;;;;;;;;5063735;28;20268;-67
2022/08/12 11:47:15;;;;;;;4.87;1.87;;;;;;;;;;5068790;28;20039;-67
2022/08/12 11:49:40;;;;;;;7.97;1.37;;;;;;;;;;5070231;28;20024;-66
2022/08/12 11:52:05;;;;;;;3.10;1.70;;;;;;;;;;5064017;28;20059;-66
2022/08/12 11:54:31;;;;;;;4.50;1.23;;;;;;;;;;5065921;28;20309;-66
2022/08/12 11:56:59;;;;;;;3.53;1.60;;;;;;;;;;5075368;28;20024;-67
2022/08/12 11:59:25;;;;;;;5.47;1.70;;;;;;;;;;5067632;28;20029;-67
2022/08/12 12:01:50;;;;;;;4.03;1.20;;;;;;;;;;5062711;28;20034;-66
2022/08/12 12:04:15;;;;;;;3.00;1.43;;;;;;;;;;5070843;28;20388;-66
2022/08/12 12:06:40;;;;;;;3.80;1.40;;;;;;;;;;5067056;28;20025;-66
2022/08/12 12:09:05;;;;;;;5.20;1.73;;;;;;;;;;5067950;28;20275;-66
2022/08/12 12:11:30;;;;;;;12.33;1.50;;;;;;;;;;5073679;28;20067;-65
2022/08/12 12:13:56;;;;;;;5.10;1.27;;;;;;;;;;5066534;28;20422;-65
2022/08/12 12:16:21;;;;;;;7.37;1.60;;;;;;;;;;5060700;28;20032;-65
2022/08/12 12:18:46;;;;;;;1.83;1.23;;;;;;;;;;5069605;28;20044;-65
2022/08/12 12:21:11;;;;;;;3.17;1.20;;;;;;;;;;5068521;28;20688;-65
2022/08/12 12:23:36;;;;;;;7.77;1.50;;;;;;;;;;5066741;28;20565;-65
2022/08/12 12:26:03;;;;;;;2.05;1.30;;;;;;;;;;5066432;28;20029;-66
2022/08/12 12:28:28;;;;;;;4.70;1.45;;;;;;;;;;5067668;28;20028;-66
2022/08/12 12:30:53;;;;;;;13.23;2.17;;;;;;;;;;5067466;28;20491;-68
2022/08/12 12:33:20;;;;;;;6.20;1.70;;;;;;;;;;5069644;28;20101;-65
2022/08/12 12:35:45;;;;;;;5.25;1.23;;;;;;;;;;5068738;28;20032;-66
2022/08/12 12:38:11;;;;;;;3.70;1.50;;;;;;;;;;5064948;28;20029;-66
2022/08/12 12:40:38;;;;;;;6.15;1.50;;;;;;;;;;5078404;28;20430;-65
2022/08/12 12:43:03;;;;;;;12.85;2.20;;;;;;;;;;5072470;28;20468;-65
2022/08/12 12:45:29;;;;;;;1.73;1.20;;;;;;;;;;5066174;28;20095;-65
2022/08/12 12:48:02;;;;;;;1.48;1.10;;;;;;;;;;5069130;28;20511;-65
2022/08/12 12:50:29;;;;;;;2.45;1.10;;;;;;;;;;5060660;28;20031;-68
2022/08/12 12:52:54;;;;;;;1.77;1.10;;;;;;;;;;5068440;28;20028;-66
2022/08/12 12:55:20;;;;;;;6.10;1.63;;;;;;;;;;5068544;28;20043;-65
2022/08/12 12:57:45;;;;;;;2.90;1.30;;;;;;;;;;5062783;28;20023;-67
2022/08/12 13:00:14;;;;;;;2.33;1.27;;;;;;;;;;5059383;28;20389;-67
2022/08/12 13:02:44;;;;;;;4.43;1.33;;;;;;;;;;5066499;28;20265;-67
2022/08/12 13:05:09;;;;;;;3.92;1.80;;;;;;;;;;5063273;28;20024;-67
2022/08/12 13:07:39;;;;;;;3.75;1.42;;;;;;;;;;5066511;28;20028;-67
2022/08/12 13:10:05;;;;;;;2.08;1.20;;;;;;;;;;5066558;28;20388;-66
2022/08/12 13:12:31;;;;;;;2.53;1.27;;;;;;;;;;5071551;28;20024;-66
2022/08/12 13:14:56;;;;;;;4.70;1.20;;;;;;;;;;5065996;28;20028;-66
2022/08/12 13:17:21;;;;;;;4.82;1.20;;;;;;;;;;5061662;28;20027;-66
2022/08/12 13:19:46;;;;;;;5.67;1.37;;;;;;;;;;5066372;28;20016;-66
2022/08/12 13:22:17;;;;;;;2.23;1.33;;;;;;;;;;5069681;28;20294;-66
2022/08/12 13:24:43;;;;;;;1.63;1.13;;;;;;;;;;5072418;28;20024;-66
2022/08/12 13:27:08;;;;;;;3.10;1.35;;;;;;;;;;5070333;28;20013;-66
2022/08/12 13:29:37;;;;;;;5.83;1.30;;;;;;;;;;5072784;28;20020;-66
2022/08/12 13:32:03;;;;;;;8.60;1.20;;;;;;;;;;5071798;28;20042;-66
2022/08/12 13:34:28;;;;;;;9.02;1.75;;;;;;;;;;5078244;28;20036;-66
2022/08/12 13:36:55;;;;;;;4.00;1.40;;;;;;;;;;5072226;28;20025;-65
2022/08/12 13:39:21;;;;;;;1.83;1.30;;;;;;;;;;5070330;28;20318;-65
2022/08/12 13:41:46;;;;;;;3.38;1.45;;;;;;;;;;5070665;28;20052;-65
2022/08/12 13:44:11;;;;;;;2.72;1.48;;;;;;;;;;5067938;28;20742;-65
2022/08/12 13:46:39;;;;;;;2.25;1.35;;;;;;;;;;5070944;28;20059;-65
2022/08/12 13:49:06;;;;;;;5.88;1.25;;;;;;;;;;5078367;28;20028;-65
2022/08/12 13:51:31;;;;;;;1.88;1.30;;;;;;;;;;5072086;28;20024;-65
2022/08/12 13:53:57;;;;;;;4.40;1.50;;;;;;;;;;5070379;28;20383;-66
2022/08/12 13:56:23;;;;;;;12.35;1.50;;;;;;;;;;5069552;28;20079;-65
2022/08/12 13:58:49;;;;;;;3.63;1.30;;;;;;;;;;5055342;28;20012;-65
2022/08/12 14:01:16;;;;;;;5.57;1.08;;;;;;;;;;5069950;28;20053;-66
2022/08/12 14:03:42;;;;;;;3.60;1.30;;;;;;;;;;5069199;28;20024;-66
2022/08/12 14:06:08;;;;;;;3.00;1.30;;;;;;;;;;5078934;28;20029;-66
2022/08/12 14:08:33;;;;;;;4.28;1.35;;;;;;;;;;5078004;28;20539;-66
2022/08/12 14:10:59;;;;;;;5.45;1.50;;;;;;;;;;5067738;28;20031;-66
2022/08/12 14:13:25;;;;;;;3.47;1.35;;;;;;;;;;5075730;28;20520;-66
2022/08/12 14:15:52;;;;;;;6.45;1.33;;;;;;;;;;5070924;28;20051;-66
2022/08/12 14:18:22;;;;;;;5.75;1.42;;;;;;;;;;5065497;28;20163;-66
2022/08/12 14:20:53;;;;;;;2.70;1.45;;;;;;;;;;5073267;28;20387;-66
2022/08/12 14:23:19;;;;;;;4.60;1.33;;;;;;;;;;5056426;28;20028;-66
2022/08/12 14:25:45;;;;;;;4.80;1.45;;;;;;;;;;5065697;28;20029;-66
2022/08/12 14:28:11;;;;;;;2.78;1.45;;;;;;;;;;5063732;28;20056;-66
2022/08/12 14:30:42;;;;;;;2.60;1.10;;;;;;;;;;5077271;28;20028;-66
2022/08/12 14:33:07;;;;;;;1.48;1.17;;;;;;;;;;5073535;28;20181;-66
2022/08/12 14:35:32;;;;;;;4.43;1.40;;;;;;;;;;5078846;28;20409;-66
2022/08/12 14:37:57;;;;;;;4.17;1.23;;;;;;;;;;5074625;28;20024;-66
2022/08/12 14:40:23;;;;;;;6.90;2.10;;;;;;;;;;5069612;28;20278;-65
2022/08/12 14:42:48;;;;;;;3.77;1.67;;;;;;;;;;5064648;28;20419;-65
2022/08/12 14:45:13;;;;;;;3.10;1.30;;;;;;;;;;5073120;28;20282;-66
2022/08/12 14:47:52;;;;;;;4.83;1.47;;;;;;;;;;5075270;28;20412;-65
2022/08/12 14:50:17;;;;;;;3.08;1.80;;;;;;;;;;5062646;28;20361;-65
2022/08/12 14:52:43;;;;;;;3.92;1.52;;;;;;;;;;5070421;28;20058;-65
2022/08/12 14:55:08;;;;;;;2.80;1.13;;;;;;;;;;5072025;28;20066;-65
2022/08/12 14:57:48;;;;;;;3.95;1.58;;;;;;;;;;5068085;28;20473;-65
2022/08/12 15:02:57;;;;;;;4.45;1.40;;;;;;;;;;5068498;28;19953;-67
2022/08/12 15:05:22;;;;;;;3.70;1.40;;;;;;;;;;5054460;28;20040;-66
2022/08/12 15:07:48;;;;;;;8.07;2.27;;;;;;;;;;5073500;28;20023;-66
2022/08/12 15:10:13;;;;;;;4.18;1.20;;;;;;;;;;5069352;28;20115;-66
2022/08/12 15:12:38;;;;;;;3.03;1.67;;;;;;;;;;5066289;28;20027;-66
2022/08/12 15:15:04;;;;;;;5.37;1.47;;;;;;;;;;5072263;28;20024;-66
2022/08/12 15:17:34;;;;;;;4.22;1.63;;;;;;;;;;5067960;28;20270;-66
2022/08/12 15:20:00;;;;;;;7.18;1.48;;;;;;;;;;5063280;28;20028;-66
2022/08/12 15:22:25;;;;;;;6.60;1.33;;;;;;;;;;5061369;28;20912;-66
2022/08/12 15:24:51;;;;;;;4.03;1.40;;;;;;;;;;5068453;28;20102;-66
2022/08/12 15:27:17;;;;;;;13.68;1.60;;;;;;;;;;5067828;28;20102;-65
2022/08/12 15:29:42;;;;;;;7.13;1.30;;;;;;;;;;5067244;28;20052;-65
2022/08/12 15:32:09;;;;;;;2.00;1.30;;;;;;;;;;5067576;28;20500;-65
2022/08/12 15:34:37;;;;;;;9.57;1.38;;;;;;;;;;5063085;28;20784;-65
2022/08/12 15:37:02;;;;;;;2.92;1.30;;;;;;;;;;5056208;28;20016;-66
2022/08/12 15:39:28;;;;;;;4.20;1.35;;;;;;;;;;5067465;28;20024;-65
2022/08/12 15:41:53;;;;;;;3.13;1.30;;;;;;;;;;5056962;28;20020;-66
2022/08/12 15:44:18;;;;;;;3.17;1.60;;;;;;;;;;5057278;28;20271;-66
2022/08/12 15:46:43;;;;;;;2.73;1.20;;;;;;;;;;5058574;28;20032;-66
2022/08/12 15:49:09;;;;;;;4.33;1.50;;;;;;;;;;5056149;28;20433;-66
2022/08/12 15:51:35;;;;;;;1.27;1.02;;;;;;;;;;5056513;28;20029;-66
2022/08/12 15:54:06;;;;;;;2.50;1.40;;;;;;;;;;5057686;28;20056;-66
2022/08/12 15:56:32;;;;;;;2.22;1.13;;;;;;;;;;5056833;28;20065;-66
2022/08/12 15:58:57;;;;;;;1.90;1.15;;;;;;;;;;5055433;28;20032;-66
2022/08/12 16:01:23;;;;;;;5.40;1.25;;;;;;;;;;5057975;28;20085;-66
2022/08/12 16:03:48;;;;;;;4.22;1.50;;;;;;;;;;5056001;28;20067;-66
2022/08/12 16:06:14;;;;;;;4.00;1.20;;;;;;;;;;5055914;28;20496;-66
2022/08/12 16:08:40;;;;;;;4.63;1.50;;;;;;;;;;5055572;28;20032;-66
2022/08/12 16:11:06;;;;;;;5.40;1.63;;;;;;;;;;5058968;28;20063;-66
2022/08/12 16:13:32;;;;;;;6.30;1.50;;;;;;;;;;5077883;28;20040;-66
2022/08/12 16:16:02;;;;;;;3.57;1.93;;;;;;;;;;5076095;28;20020;-66
2022/08/12 16:18:27;;;;;;;8.68;2.92;;;;;;;;;;5083523;28;20632;-66
2022/08/12 16:20:53;;;;;;;6.95;1.30;;;;;;;;;;5068831;28;20027;-66
2022/08/12 16:23:18;;;;;;;5.53;1.50;;;;;;;;;;5067440;28;20021;-66
2022/08/12 16:25:48;;;;;;;5.90;1.93;;;;;;;;;;5069154;28;20362;-65